Time;durP1;ratioP1;P1;durP2;ratioP2;P2;SDS_P1;SDS_P2;PMS_P1;PMS_P2;Temp;Humidity;BMP_temperature;BMP_pressure;BME280_temperature;BME280_humidity;BME280_pressure;Samples;Min_cycle;Max_cycle;Signal;HPM_P1;HPM_P2
2022/01/07 14:09:10;;;;;;;2.35;1.30;;;14.80;76.30;;;;;;2299381;62;30167;-70
2022/01/07 14:11:38;;;;;;;2.05;1.45;;;14.80;76.70;;;;;;2283552;62;30201;-70
2022/01/07 14:14:14;;;;;;;3.15;1.38;;;14.80;77.70;;;;;;2283782;62;30428;-70
2022/01/07 14:16:47;;;;;;;5.47;1.25;;;14.80;78.30;;;;;;2291334;62;30907;-71
2022/01/07 14:19:13;;;;;;;13.57;1.88;;;14.80;79.20;;;;;;2283582;62;30234;-70
2022/01/07 14:21:42;;;;;;;6.25;1.65;;;14.80;80.00;;;;;;2291259;62;30102;-70
2022/01/07 14:24:10;;;;;;;2.13;1.35;;;14.70;81.00;;;;;;2291244;62;30624;-70
2022/01/07 14:26:46;;;;;;;3.97;1.40;;;14.70;80.70;;;;;;2277020;62;30848;-70
2022/01/07 14:29:13;;;;;;;2.05;1.20;;;14.70;80.00;;;;;;2291281;62;30331;-70
2022/01/07 14:31:38;;;;;;;5.72;1.30;;;14.60;81.10;;;;;;2283881;62;30375;-70
2022/01/07 14:34:04;;;;;;;2.38;1.45;;;14.60;81.20;;;;;;2290942;62;30300;-69
2022/01/07 14:36:30;;;;;;;5.10;1.75;;;14.60;81.30;;;;;;2291142;62;30988;-69
2022/01/07 14:38:57;;;;;;;2.75;1.50;;;14.60;81.40;;;;;;2291248;62;30324;-68
2022/01/07 14:41:23;;;;;;;2.22;1.30;;;14.50;81.40;;;;;;2290878;62;30169;-69
2022/01/07 14:43:52;;;;;;;2.53;1.42;;;14.50;81.30;;;;;;2283784;62;30525;-70
2022/01/07 14:46:17;;;;;;;2.20;1.20;;;14.50;81.30;;;;;;2291176;62;31170;-71
2022/01/07 14:48:43;;;;;;;2.13;1.10;;;14.60;81.20;;;;;;2290785;62;30503;-71
2022/01/07 14:51:09;;;;;;;1.38;1.27;;;14.60;81.10;;;;;;2291087;62;30353;-71
2022/01/07 14:53:35;;;;;;;2.15;1.23;;;14.60;81.00;;;;;;2291030;62;30082;-71
2022/01/07 14:56:01;;;;;;;4.57;1.60;;;14.60;81.00;;;;;;2281858;62;31033;-72
2022/01/07 14:58:27;;;;;;;4.60;1.45;;;14.60;81.00;;;;;;2289637;62;30567;-71
2022/01/07 15:00:54;;;;;;;2.72;1.13;;;14.60;81.00;;;;;;2283442;62;30308;-71
2022/01/07 15:03:23;;;;;;;3.95;1.63;;;14.60;80.80;;;;;;2283591;62;30057;-71
2022/01/07 15:05:49;;;;;;;2.85;1.20;;;14.60;80.80;;;;;;2290804;62;30345;-71
2022/01/07 15:08:15;;;;;;;1.92;1.30;;;14.60;80.70;;;;;;2283124;62;30253;-71
2022/01/07 15:10:40;;;;;;;1.75;1.20;;;14.60;80.50;;;;;;2291003;62;30226;-70
2022/01/07 15:13:08;;;;;;;2.03;1.02;;;14.60;80.50;;;;;;2290893;62;30403;-70
2022/01/07 15:18:18;;;;;;;1.48;1.27;;;14.50;80.50;;;;;;2290135;62;30513;-70
2022/01/07 15:20:44;;;;;;;1.30;1.10;;;14.40;80.60;;;;;;2277902;62;30237;-70
2022/01/07 15:23:10;;;;;;;8.25;1.52;;;14.40;80.60;;;;;;2285223;62;30656;-71
2022/01/07 15:25:36;;;;;;;3.67;1.33;;;14.40;80.60;;;;;;2285237;62;31421;-71
2022/01/07 15:28:01;;;;;;;4.97;1.52;;;14.40;80.70;;;;;;2285258;62;30260;-70
2022/01/07 15:30:27;;;;;;;5.15;1.30;;;14.30;80.60;;;;;;2285225;62;30433;-70
2022/01/07 15:32:53;;;;;;;3.85;1.75;;;14.40;80.50;;;;;;2284579;62;30074;-71
2022/01/07 15:35:25;;;;;;;2.10;1.30;;;14.40;80.40;;;;;;2285534;62;30223;-71
2022/01/07 15:37:51;;;;;;;3.80;1.58;;;14.40;80.30;;;;;;2285349;62;30422;-70
2022/01/07 15:40:17;;;;;;;1.70;1.10;;;14.50;80.20;;;;;;2271173;62;30459;-70
2022/01/07 15:42:46;;;;;;;1.95;1.23;;;14.50;80.00;;;;;;2277828;62;30203;-71
2022/01/07 15:45:11;;;;;;;2.42;1.10;;;14.50;79.90;;;;;;2284976;62;30186;-70
2022/01/07 15:47:38;;;;;;;2.55;1.05;;;14.60;79.80;;;;;;2277526;62;30046;-70
2022/01/07 15:50:04;;;;;;;2.03;1.20;;;14.60;79.70;;;;;;2277588;62;30240;-69
2022/01/07 15:52:30;;;;;;;1.75;1.10;;;14.60;79.60;;;;;;2285314;62;30270;-70
2022/01/07 15:54:57;;;;;;;2.30;1.30;;;14.60;79.50;;;;;;2285190;62;30741;-70
2022/01/07 15:57:24;;;;;;;1.63;0.80;;;14.70;79.40;;;;;;2277542;62;30862;-70
2022/01/07 15:59:50;;;;;;;3.28;1.17;;;14.70;80.10;;;;;;2285213;62;30660;-69
2022/01/07 16:02:16;;;;;;;2.38;1.40;;;14.70;79.30;;;;;;2285190;62;30092;-69
2022/01/07 16:04:42;;;;;;;2.10;1.27;;;14.70;79.20;;;;;;2284860;62;30137;-69
2022/01/07 16:07:09;;;;;;;2.28;1.52;;;14.70;79.10;;;;;;2285022;62;30431;-68
2022/01/07 16:09:34;;;;;;;6.15;1.20;;;14.70;79.00;;;;;;2285115;62;30185;-69
2022/01/07 16:12:00;;;;;;;2.22;1.10;;;14.70;78.90;;;;;;2277248;62;30045;-70
2022/01/07 16:14:28;;;;;;;3.45;1.30;;;14.80;79.00;;;;;;2285015;62;30119;-71
2022/01/07 16:16:54;;;;;;;3.38;1.30;;;14.90;78.90;;;;;;2285000;62;30386;-70
2022/01/07 16:19:20;;;;;;;1.38;1.10;;;15.00;78.70;;;;;;2282675;62;30199;-69
2022/01/07 16:21:48;;;;;;;1.77;1.02;;;15.10;78.50;;;;;;2282293;62;30454;-70
2022/01/07 16:24:15;;;;;;;1.90;0.95;;;15.10;78.30;;;;;;2276852;62;30177;-70
2022/01/07 16:26:41;;;;;;;1.95;1.10;;;15.20;78.20;;;;;;2275188;62;30747;-70
2022/01/07 16:29:06;;;;;;;1.65;1.10;;;15.20;78.20;;;;;;2275398;62;30136;-70
2022/01/07 16:31:35;;;;;;;1.23;1.10;;;15.20;78.00;;;;;;2273585;62;30341;-70
2022/01/07 16:34:01;;;;;;;1.52;0.90;;;15.20;77.90;;;;;;2275887;62;30188;-70
2022/01/07 16:36:29;;;;;;;1.38;0.90;;;15.20;77.80;;;;;;2283421;62;30759;-70
2022/01/07 16:38:55;;;;;;;1.85;1.00;;;15.30;77.70;;;;;;2283931;62;30067;-70
2022/01/07 16:41:21;;;;;;;1.60;1.05;;;15.30;77.60;;;;;;2276175;62;30369;-70
2022/01/07 16:43:46;;;;;;;3.00;1.23;;;15.30;77.50;;;;;;2283913;62;30136;-69
2022/01/07 16:46:14;;;;;;;1.27;0.90;;;15.30;77.40;;;;;;2283479;62;30452;-70
2022/01/07 16:48:40;;;;;;;2.90;1.08;;;15.30;77.40;;;;;;2283654;62;30213;-70
2022/01/07 16:51:06;;;;;;;2.25;1.27;;;15.30;77.10;;;;;;2283938;62;30008;-71
2022/01/07 16:53:32;;;;;;;6.43;1.55;;;15.30;77.10;;;;;;2283579;62;30285;-70
2022/01/07 16:55:58;;;;;;;4.75;1.27;;;15.30;77.20;;;;;;2276386;62;30377;-71
2022/01/07 16:58:24;;;;;;;3.92;1.48;;;15.30;77.20;;;;;;2283875;62;30472;-70
2022/01/07 17:00:50;;;;;;;3.08;1.20;;;15.30;77.20;;;;;;2283658;62;30645;-70
2022/01/07 17:03:16;;;;;;;3.47;1.15;;;15.30;77.10;;;;;;2283892;62;30174;-70
2022/01/07 17:05:42;;;;;;;3.80;1.38;;;15.30;77.10;;;;;;2283874;62;30181;-71
2022/01/07 17:08:09;;;;;;;2.15;1.30;;;15.30;77.00;;;;;;2276059;62;30425;-70
2022/01/07 17:10:39;;;;;;;1.20;1.00;;;15.40;77.00;;;;;;2283071;62;30231;-70
2022/01/07 17:13:09;;;;;;;2.50;1.33;;;15.30;76.80;;;;;;2283146;62;30941;-70
2022/01/07 17:15:37;;;;;;;1.70;1.35;;;15.40;76.70;;;;;;2283358;62;30652;-70
2022/01/07 17:18:04;;;;;;;2.75;1.30;;;15.30;76.70;;;;;;2283936;62;30066;-70
2022/01/07 17:20:32;;;;;;;9.25;1.60;;;15.30;76.80;;;;;;2283754;62;30484;-69
2022/01/07 17:23:01;;;;;;;1.85;1.40;;;15.30;76.90;;;;;;2283337;62;30844;-70
2022/01/07 17:25:28;;;;;;;3.05;1.05;;;15.30;76.90;;;;;;2283221;62;30225;-70
2022/01/07 17:27:54;;;;;;;2.80;1.60;;;15.40;76.80;;;;;;2276108;62;30699;-70
2022/01/07 17:30:20;;;;;;;4.75;1.70;;;15.30;76.80;;;;;;2283313;62;30236;-70
2022/01/07 17:32:46;;;;;;;2.15;1.30;;;15.40;76.80;;;;;;2275919;62;30761;-70
2022/01/07 17:35:12;;;;;;;1.60;1.40;;;15.40;76.70;;;;;;2283472;62;30737;-70
2022/01/07 17:37:38;;;;;;;2.00;1.35;;;15.40;76.50;;;;;;2283259;62;30123;-69
2022/01/07 17:40:05;;;;;;;2.85;1.75;;;15.40;76.40;;;;;;2283526;62;30221;-70
2022/01/07 17:42:31;;;;;;;3.30;1.60;;;15.30;76.50;;;;;;2282831;62;30626;-71
2022/01/07 17:44:56;;;;;;;1.60;1.50;;;15.30;76.60;;;;;;2276206;62;30297;-71
2022/01/07 17:47:22;;;;;;;2.83;1.58;;;15.30;77.40;;;;;;2283227;62;30218;-70
2022/01/07 17:49:48;;;;;;;2.72;1.70;;;15.30;76.70;;;;;;2283209;62;30103;-68
2022/01/07 17:52:16;;;;;;;2.33;1.88;;;15.30;76.70;;;;;;2275969;62;30862;-69
2022/01/07 17:54:42;;;;;;;3.75;1.63;;;15.40;76.70;;;;;;2283206;62;30097;-71
2022/01/07 17:57:08;;;;;;;2.33;1.70;;;15.40;76.70;;;;;;2283017;62;30207;-72
2022/01/07 17:59:34;;;;;;;1.98;1.50;;;15.40;76.70;;;;;;2283406;62;30078;-74
2022/01/07 18:02:00;;;;;;;1.48;1.23;;;15.40;76.70;;;;;;2275788;62;30820;-68
2022/01/07 18:04:26;;;;;;;4.22;1.70;;;15.40;76.60;;;;;;2283012;62;30137;-70
2022/01/07 18:06:52;;;;;;;2.00;1.48;;;15.50;76.60;;;;;;2275838;62;30773;-69
2022/01/07 18:09:18;;;;;;;3.58;1.60;;;15.50;76.50;;;;;;2283431;62;30253;-70
2022/01/07 18:11:44;;;;;;;2.88;1.63;;;15.50;76.30;;;;;;2275069;62;30184;-71
2022/01/07 18:14:14;;;;;;;3.80;1.75;;;15.60;76.30;;;;;;2283011;62;30156;-70
2022/01/07 18:16:41;;;;;;;3.45;1.85;;;15.60;76.40;;;;;;2275318;62;30687;-70
2022/01/07 18:19:07;;;;;;;3.15;1.70;;;15.70;76.40;;;;;;2282336;62;30341;-71
2022/01/07 18:21:33;;;;;;;3.03;1.50;;;15.80;77.00;;;;;;2282884;62;30175;-70
2022/01/07 18:23:59;;;;;;;2.90;1.60;;;15.90;76.30;;;;;;2268554;62;30334;-70
2022/01/07 18:26:25;;;;;;;4.63;1.58;;;15.90;76.20;;;;;;2282766;62;30275;-71
2022/01/07 18:28:51;;;;;;;4.00;1.58;;;16.00;76.10;;;;;;2282471;62;30451;-71
2022/01/07 18:31:17;;;;;;;1.83;1.63;;;16.10;76.10;;;;;;2282602;62;30301;-70
2022/01/07 18:33:44;;;;;;;15.57;2.22;;;16.10;76.00;;;;;;2282926;62;30162;-70
2022/01/07 18:36:10;;;;;;;1.50;1.38;;;16.10;76.00;;;;;;2283094;62;30109;-70
2022/01/07 18:38:35;;;;;;;2.75;1.30;;;16.20;76.00;;;;;;2275369;62;30373;-72
2022/01/07 18:41:02;;;;;;;4.05;1.60;;;16.20;76.00;;;;;;2275452;62;31249;-71
2022/01/07 18:43:27;;;;;;;2.42;1.70;;;16.20;75.90;;;;;;2283052;62;30335;-71
2022/01/07 18:45:56;;;;;;;2.42;1.60;;;16.20;75.70;;;;;;2275402;62;30128;-71
2022/01/07 18:48:22;;;;;;;2.90;1.60;;;16.20;75.50;;;;;;2282915;62;30423;-70
2022/01/07 18:50:48;;;;;;;2.40;1.70;;;16.20;75.60;;;;;;2283116;62;30161;-70
2022/01/07 18:53:14;;;;;;;3.08;1.63;;;16.20;76.00;;;;;;2282850;62;30439;-71
2022/01/07 18:55:40;;;;;;;1.50;1.38;;;16.20;76.00;;;;;;2284321;62;30002;-70
2022/01/07 18:58:06;;;;;;;1.25;1.10;;;16.20;75.90;;;;;;2284456;62;30609;-70
2022/01/07 19:00:32;;;;;;;1.95;1.30;;;16.40;75.90;;;;;;2284198;62;30787;-70
2022/01/07 19:02:58;;;;;;;3.33;1.48;;;16.50;75.80;;;;;;2284194;62;30099;-69
2022/01/07 19:05:23;;;;;;;2.15;1.27;;;16.60;75.70;;;;;;2284243;62;30688;-70
2022/01/07 19:07:49;;;;;;;1.60;1.08;;;16.70;75.50;;;;;;2283584;62;30212;-68
2022/01/07 19:10:16;;;;;;;4.25;1.48;;;16.70;75.30;;;;;;2275510;62;30326;-69
2022/01/07 19:12:42;;;;;;;2.53;1.25;;;16.80;75.20;;;;;;2284018;62;30840;-70
2022/01/07 19:15:08;;;;;;;1.42;1.17;;;16.80;75.10;;;;;;2284169;62;30222;-69
2022/01/07 19:17:35;;;;;;;1.95;1.30;;;16.90;75.00;;;;;;2285429;62;30264;-70
2022/01/07 19:20:03;;;;;;;1.70;1.10;;;16.90;74.80;;;;;;2277515;62;30937;-70
2022/01/07 19:22:29;;;;;;;1.30;1.13;;;16.90;74.70;;;;;;2270811;62;30474;-69
2022/01/07 19:24:55;;;;;;;1.10;1.05;;;16.90;74.60;;;;;;2285197;62;30265;-69
2022/01/07 19:27:21;;;;;;;1.75;1.40;;;17.00;74.50;;;;;;2285251;62;29956;-69
2022/01/07 19:29:47;;;;;;;2.15;1.08;;;17.00;74.40;;;;;;2285048;62;30924;-69
2022/01/07 19:32:13;;;;;;;1.77;1.15;;;17.00;74.40;;;;;;2285157;62;30408;-69
2022/01/07 19:34:39;;;;;;;1.40;1.15;;;17.00;74.20;;;;;;2285391;62;30182;-70
2022/01/07 19:37:05;;;;;;;2.38;1.20;;;17.00;74.20;;;;;;2284707;62;30352;-70
2022/01/07 19:39:31;;;;;;;2.03;1.23;;;17.00;74.20;;;;;;2277720;62;30477;-70
2022/01/07 19:41:57;;;;;;;2.33;1.52;;;17.00;74.10;;;;;;2284853;62;30060;-70
2022/01/07 19:44:22;;;;;;;2.65;1.48;;;17.10;74.00;;;;;;2285211;62;30034;-70
2022/01/07 19:46:50;;;;;;;1.80;1.30;;;17.00;74.00;;;;;;2285247;62;30117;-69
2022/01/07 19:49:15;;;;;;;2.70;1.52;;;17.10;74.00;;;;;;2284938;62;30998;-69
2022/01/07 19:51:41;;;;;;;1.55;1.38;;;17.10;73.90;;;;;;2285210;62;30059;-69
2022/01/07 19:54:07;;;;;;;1.83;1.38;;;17.10;73.80;;;;;;2284843;62;30216;-70
2022/01/07 19:56:33;;;;;;;16.08;2.88;;;17.10;73.70;;;;;;2284913;62;30175;-81
2022/01/07 19:58:59;;;;;;;2.15;1.40;;;17.20;73.90;;;;;;2285227;62;30146;-80
2022/01/07 20:01:25;;;;;;;1.92;1.30;;;17.20;73.50;;;;;;2277846;62;30444;-80
2022/01/07 20:03:51;;;;;;;3.58;1.55;;;17.20;73.10;;;;;;2284864;62;30097;-80
2022/01/07 20:06:20;;;;;;;4.22;1.90;;;17.30;73.00;;;;;;2285268;62;30085;-79
2022/01/07 20:08:48;;;;;;;1.25;1.15;;;17.30;72.70;;;;;;2284886;62;30292;-80
2022/01/07 20:11:16;;;;;;;1.52;1.33;;;17.30;72.60;;;;;;2284642;62;30111;-81
2022/01/07 20:13:42;;;;;;;2.25;1.60;;;17.40;72.60;;;;;;2270943;62;30509;-81
2022/01/07 20:16:10;;;;;;;1.52;1.40;;;17.40;72.50;;;;;;2284903;62;30038;-82
2022/01/07 20:18:38;;;;;;;3.10;1.60;;;17.40;72.40;;;;;;2284874;62;30867;-82
2022/01/07 20:21:04;;;;;;;2.88;1.60;;;17.40;72.30;;;;;;2285079;62;30667;-82
2022/01/07 20:23:33;;;;;;;4.85;1.42;;;17.40;72.20;;;;;;2284959;62;30176;-80
2022/01/07 20:25:59;;;;;;;1.25;1.13;;;17.40;72.20;;;;;;2284690;62;30424;-80
2022/01/07 20:28:24;;;;;;;1.50;1.10;;;17.50;72.20;;;;;;2284884;62;32406;-79
2022/01/07 20:30:50;;;;;;;2.35;1.20;;;17.50;72.20;;;;;;2284944;62;30526;-80
2022/01/07 20:33:19;;;;;;;2.30;1.50;;;17.50;72.20;;;;;;2284718;62;30188;-80
2022/01/07 20:35:45;;;;;;;1.58;1.27;;;17.50;72.10;;;;;;2284976;62;30256;-79
2022/01/07 20:38:13;;;;;;;1.25;1.15;;;17.50;72.00;;;;;;2284412;62;30078;-80
2022/01/07 20:40:41;;;;;;;1.20;1.10;;;17.50;72.10;;;;;;2285095;62;30039;-79
2022/01/07 20:43:08;;;;;;;1.30;1.20;;;17.50;72.00;;;;;;2277682;62;30170;-80
2022/01/07 20:45:34;;;;;;;1.95;1.52;;;17.50;72.00;;;;;;2284713;62;30347;-79
2022/01/07 20:48:00;;;;;;;1.85;1.38;;;17.50;72.00;;;;;;2270621;62;30914;-76
2022/01/07 20:50:26;;;;;;;1.98;1.10;;;17.50;72.00;;;;;;2277407;62;30431;-75
2022/01/07 20:52:51;;;;;;;1.50;1.40;;;17.60;71.90;;;;;;2282555;62;30348;-78
2022/01/07 20:55:17;;;;;;;1.20;1.10;;;17.50;71.80;;;;;;2283657;62;30078;-78
2022/01/07 20:57:43;;;;;;;1.48;1.13;;;17.50;71.80;;;;;;2276441;62;31127;-78
2022/01/07 21:00:14;;;;;;;1.20;1.10;;;17.60;71.70;;;;;;2283661;62;30417;-80
2022/01/07 21:02:40;;;;;;;1.05;1.00;;;17.60;71.60;;;;;;2283852;62;30162;-80
2022/01/07 21:05:07;;;;;;;1.38;1.20;;;17.60;71.60;;;;;;2276258;62;30252;-79
2022/01/07 21:07:39;;;;;;;1.45;1.27;;;17.60;71.60;;;;;;2283475;62;31037;-80
2022/01/07 21:10:05;;;;;;;1.20;1.10;;;17.60;71.50;;;;;;2283740;62;30241;-79
2022/01/07 21:12:31;;;;;;;1.63;1.08;;;17.60;71.50;;;;;;2283728;62;30321;-80
2022/01/07 21:14:57;;;;;;;1.20;1.10;;;17.60;71.50;;;;;;2276103;62;30351;-80
2022/01/07 21:17:23;;;;;;;2.28;1.20;;;17.60;71.40;;;;;;2283467;62;30094;-80
2022/01/07 21:19:50;;;;;;;1.85;1.00;;;17.60;71.30;;;;;;2283591;62;30809;-80
2022/01/07 21:22:16;;;;;;;1.30;1.20;;;17.60;71.30;;;;;;2276037;62;30317;-82
2022/01/07 21:24:42;;;;;;;1.05;0.90;;;17.60;71.30;;;;;;2282882;62;30303;-80
2022/01/07 21:27:11;;;;;;;1.25;1.10;;;17.60;71.20;;;;;;2282859;62;30752;-80
2022/01/07 21:29:37;;;;;;;1.15;1.05;;;17.60;71.10;;;;;;2283509;62;30386;-81
2022/01/07 21:32:03;;;;;;;1.50;1.20;;;17.60;71.20;;;;;;2282689;62;30227;-79
2022/01/07 21:34:29;;;;;;;1.50;1.20;;;17.60;71.20;;;;;;2282659;62;30153;-78
2022/01/07 21:36:55;;;;;;;1.05;0.93;;;17.60;71.20;;;;;;2282538;62;30295;-81
2022/01/07 21:39:21;;;;;;;1.75;1.15;;;17.60;71.10;;;;;;2282693;62;30562;-80
2022/01/07 21:41:48;;;;;;;1.15;1.00;;;17.60;71.10;;;;;;2283369;62;30074;-79
2022/01/07 21:44:14;;;;;;;1.23;0.80;;;17.60;71.10;;;;;;2283687;62;29991;-85
2022/01/07 21:46:40;;;;;;;1.05;0.95;;;17.50;71.00;;;;;;2283254;62;30841;-86
2022/01/07 21:49:09;;;;;;;1.08;1.00;;;17.50;71.00;;;;;;2283103;62;30625;-81
2022/01/07 21:51:43;;;;;;;2.33;1.27;;;17.60;71.10;;;;;;2283189;62;30271;-82
2022/01/07 21:54:17;;;;;;;1.08;0.90;;;17.60;71.10;;;;;;2282154;62;30334;-83
2022/01/07 21:56:49;;;;;;;1.50;0.90;;;17.50;70.90;;;;;;2282732;62;31052;-79
2022/01/07 21:59:20;;;;;;;1.45;1.15;;;17.50;71.00;;;;;;2282140;62;30762;-80
2022/01/07 22:01:52;;;;;;;;;;;17.50;71.00;;;;;;2283953;62;30842;-79
2022/01/07 22:04:31;;;;;;;1.05;0.80;;;17.50;70.60;;;;;;2283403;62;30089;-77
2022/01/07 22:06:57;;;;;;;1.23;0.90;;;17.50;71.10;;;;;;2283264;62;30436;-79
2022/01/07 22:09:23;;;;;;;1.65;0.90;;;17.40;71.10;;;;;;2283401;62;30285;-79
2022/01/07 22:11:49;;;;;;;1.15;0.93;;;17.40;71.10;;;;;;2283302;62;30140;-79
2022/01/07 22:14:15;;;;;;;1.20;1.10;;;17.40;71.00;;;;;;2283355;62;30526;-80
2022/01/07 22:16:41;;;;;;;2.78;0.90;;;17.40;71.00;;;;;;2282914;62;30311;-81
2022/01/07 22:19:07;;;;;;;0.85;0.85;;;17.50;71.20;;;;;;2282073;62;30295;-79
2022/01/07 22:21:35;;;;;;;1.55;1.17;;;17.50;71.10;;;;;;2275328;62;30106;-78
2022/01/07 22:24:01;;;;;;;1.83;1.10;;;17.50;71.00;;;;;;2274916;62;30263;-79
2022/01/07 22:26:27;;;;;;;1.10;0.80;;;17.60;70.90;;;;;;2275025;62;30187;-81
2022/01/07 22:28:53;;;;;;;1.38;1.20;;;17.50;70.90;;;;;;2275322;62;30744;-81
2022/01/07 22:31:19;;;;;;;1.33;1.10;;;17.50;70.90;;;;;;2276304;62;30217;-79
2022/01/07 22:33:45;;;;;;;0.70;0.70;;;17.50;70.90;;;;;;2276959;62;30489;-71
2022/01/07 22:36:11;;;;;;;1.70;1.00;;;17.50;70.90;;;;;;2284450;62;30162;-71
2022/01/07 22:38:37;;;;;;;1.55;1.27;;;17.50;70.90;;;;;;2284432;62;30605;-72
2022/01/07 22:41:02;;;;;;;3.60;2.63;;;17.50;71.00;;;;;;2277281;62;30288;-72
2022/01/07 22:43:28;;;;;;;3.13;2.55;;;17.50;71.00;;;;;;2282833;62;30317;-71
2022/01/07 22:45:54;;;;;;;2.97;2.58;;;17.50;71.10;;;;;;2284352;62;31111;-71
2022/01/07 22:48:20;;;;;;;2.63;2.17;;;17.40;71.00;;;;;;2284476;62;30502;-71
2022/01/07 22:50:46;;;;;;;2.00;1.83;;;17.40;71.10;;;;;;2284404;62;30198;-71
2022/01/07 22:53:12;;;;;;;1.90;1.70;;;17.40;71.20;;;;;;2282415;62;30582;-70
2022/01/07 22:55:38;;;;;;;1.95;1.50;;;17.40;71.30;;;;;;2283657;62;30946;-70
2022/01/07 22:58:03;;;;;;;1.90;1.67;;;17.40;71.30;;;;;;2284448;62;30819;-70
2022/01/07 23:00:31;;;;;;;2.40;1.33;;;17.40;71.30;;;;;;2284375;62;30353;-71
2022/01/07 23:02:59;;;;;;;2.72;1.25;;;17.40;71.20;;;;;;2283405;62;30349;-69
2022/01/07 23:05:26;;;;;;;1.48;1.38;;;17.40;71.30;;;;;;2263143;62;30057;-70
2022/01/07 23:07:52;;;;;;;1.70;1.60;;;17.30;71.20;;;;;;2269336;62;30106;-69
2022/01/07 23:10:18;;;;;;;2.08;1.42;;;17.40;71.30;;;;;;2277166;62;30186;-70
2022/01/07 23:12:44;;;;;;;2.63;1.48;;;17.30;71.30;;;;;;2277248;62;30398;-69
2022/01/07 23:15:12;;;;;;;1.67;1.40;;;17.30;71.30;;;;;;2283502;62;30419;-70
2022/01/07 23:17:45;;;;;;;1.65;1.23;;;17.30;71.30;;;;;;2285383;62;30095;-71
2022/01/07 23:20:14;;;;;;;1.38;1.20;;;17.30;71.30;;;;;;2278169;62;30276;-69
2022/01/07 23:22:45;;;;;;;4.85;1.40;;;17.30;71.40;;;;;;2285014;62;30877;-76
